ACT        NSW        VIC        QLD        SA        WA        TAS        NT        INFO        CALC            by VK5ZD

Past Date/Time: (dd/mm/yyyy hh:mm or blank for current data)    

  Atmospheric Gas Attenuation - ITU Rec 676-11   --------------- dB/100km ---------------
WA Stations Date Time Temp RH % AH g/m3 Dew Point Wind Direction Speed kph Gust kph Barometer mB Rainfall Since 9am 24GHz 47GHz 76GHz 122GHz 134GHz 241GHz
Albany 09/05 09:00 14 65 7.84 7.5 13 1013.1 0 18.0 24.6 36.7 96.2 88.3 303.0
Albany Airport 09/05 10:30 16.6 59 8.33 8.6 13 17 1030.9 0 18.9 25.3 38.1 99.8 92.9 319.3
Badgingarra 09/05 10:30 17.8 41 6.22 4.4 26 35 1013.1 0 14.4 21.3 29.2 76.2 65.0 221.9
Barimunya 09/05 10:30 19.1 25 4.1 -1.4 26 39 1020.8 0 9.9 18.4 22.1 57.1 41.4 139.0
Barrow Island 09/05 10:30 24.6 42 9.45 10.8 48 57 1018.2 0 20.8 24.4 38.0 99.8 96.1 331.6
Bedout Island 09/05 10:30 24.8 44 10.02 11.7 41 52 1017.2 0 22.0 25.1 39.9 104.9 102.5 354.2
Bencubbin 09/05 09:00 15 58 7.44 6.9 7 1026.8 0 17.1 24.2 35.3 92.2 83.1 284.9
Beverley 09/05 09:00 14.6 72 9.01 9.6 15 1013.1 0 20.4 26.3 41.0 107.8 102.8 353.9
Bickley 09/05 10:30 15.8 54 7.27 6.5 19 30 1013.1 0 16.7 23.3 33.7 88.3 79.2 271.5
Boolgeeda 09/05 10:30 21.2 24 4.45 -0.1 22 32 1019.3 0 10.6 18.4 22.6 58.4 43.9 147.9
Bridgetown 09/05 08:40 10.9 75 7.46 6.6 2 4 1030 0 17.3 25.5 37.3 97.6 88.1 301.7
Brookton 09/05 09:00 13.1 61 6.96 5.8 9 1013.1 0 16.1 23.5 33.7 88.2 78.1 267.2
Broome 09/05 10:30 27.5 34 9 10.2 24 35 1015.2 0 19.8 22.9 35.0 91.9 87.4 301.5
Bunbury 09/05 10:30 18.6 48 7.64 7.4 17 22 1028.4 0 17.3 23.6 34.5 90.3 81.9 281.2
Busselton Airport 09/05 10:30 18.1 49 7.57 7.2 20 30 1028.2 0 17.2 23.7 34.5 90.1 81.6 279.9
Cape Leeuwin 09/05 10:30 17 52 7.52 7.1 35 50 1027.1 0 17.1 23.8 34.7 90.8 82.0 281.4
Cape Naturaliste 09/05 10:30 18.4 59 9.28 10.3 35 44 1027.1 0 20.8 26.2 40.8 106.9 102.5 353.2
Carnarvon 09/05 10:30 26.5 22 5.51 3.1 30 37 1020.7 0 12.6 18.7 24.4 63.4 51.6 175.8
Christmas Creek 09/05 10:30 19.9 23 3.95 -1.8 24 33 1021.3 0 9.6 18.1 21.4 55.3 39.5 132.3
Christmas Island 09/05 10:30 27.3 85 22.24 24.6 17 30 1011.4 0 47.6 45.1 90.2 238.9 268.0 931.4
Cocos Island 09/05 08:47 28.1 90 24.61 26.3 17 22 1009.9 0 52.5 49.4 101.1 267.8 303.7 1055.5
Collie East 09/05 10:30 16.4 50 6.98 6 17 24 1013.1 0 16.0 22.7 32.4 84.8 75.1 257.3
Coondewanna 09/05 10:30 19.2 23 3.79 -2.4 28 41 1020.4 0 9.3 18.0 21.1 54.4 38.2 127.5
Cunderdin Airport 09/05 10:30 18.1 46 7.11 6.3 28 35 1029.2 0 16.2 23.0 32.9 85.7 76.1 260.8
Curtin 09/05 10:30 26.6 36 9.06 10.3 20 30 1014.1 0 19.9 23.2 35.6 93.4 89.0 306.9
Cygnet Bay 09/05 09:00 25.6 58 13.81 16.7 1014.8 0 29.9 30.7 54.0 142.3 148.9 516.5
Dalwallinu 09/05 10:30 17.5 40 5.96 3.8 32 39 1027.2 0 13.8 21.4 28.9 75.3 63.1 214.9
Doongan 09/05 09:00 24 43 9.35 10.7 32 1014.8 0 20.7 24.3 37.8 99.2 95.3 329.0
Dwellingup 09/05 10:30 16.8 49 7.01 6 20 30 1028.6 0 16.1 23.2 33.0 86.1 76.1 260.6
Eliwana Airport 09/05 10:30 22.4 23 4.57 0.3 17 26 1013.1 0 10.8 18.1 22.4 58.1 44.2 149.3
Esperance 09/05 10:30 16.7 66 9.38 10.3 15 20 1033.5 0 21.1 27.1 42.3 111.0 106.6 367.3
Esperance Airport 09/05 10:30 15.7 67 8.96 9.6 13 17 1033.4 0 20.2 26.7 41.2 107.9 102.4 352.4
Eucla 09/05 10:30 15.5 89 11.76 13.7 7 11 1032.3 0 26.2 31.5 53.1 139.6 141.5 489.0
Eyre 09/05 09:00 15.1 93 12 14 2 1034.1 0.7 26.8 32.1 54.5 143.4 145.9 504.6
Fitzroy Crossing 09/05 10:30 27.4 32 8.42 9.3 1015.5 0 18.6 22.1 33.1 86.8 81.1 279.5
Forrest 09/05 10:30 16.4 64 8.93 9.6 20 28 1031.8 0 20.1 26.4 40.6 106.4 100.9 347.5
Fortescue Dave Forrest 09/05 10:30 20.2 25 4.37 -0.4 28 39 1020.7 0 10.4 18.5 22.6 58.5 43.7 147.0
Garden Island 09/05 10:30 19.4 49 8.17 8.4 22 32 1027.9 0 18.4 24.2 36.1 94.5 87.5 300.7
Geraldton Airport 09/05 10:30 23.4 25 5.26 2.3 43 50 1023.8 0 12.2 19.1 24.6 63.9 51.2 173.7
Gerangamete (Cfa) 09/05 12:20 16.9 73 10.5 12.1 7 13 1013.1 0 23.5 28.1 45.8 120.6 119.4 412.5
Giles* 09/05 12:10 17.8 26 3.95 -1.9 15 19 1024.3 0 9.6 18.6 22.1 56.9 40.6 136.0
Gingin Airport 09/05 10:30 19.6 38 6.41 4.9 20 28 1027.6 0 14.7 21.6 29.8 77.5 66.5 227.3
Golden Grove 09/05 10:30 18 35 5.38 2.3 26 33 1026.3 0 12.6 20.5 26.7 69.4 56.1 190.4
Gooseberry Hill 09/05 10:30 18.1 43 6.64 5.3 24 35 1013.1 0 15.2 21.8 30.6 79.8 69.6 238.0
Gudai-Darri Mine 09/05 10:30 20.4 24 4.25 -0.8 28 41 1013.1 0 10.2 18.1 22.0 56.9 42.0 141.3
Halls Creek 09/05 12:10 23.1 31 6.41 5.1 28 32 1016.5 0 14.6 20.5 28.1 73.4 63.1 215.8
Hopetoun North 09/05 10:30 16 62 8.45 8.7 17 24 1032.2 0 19.1 25.7 39.0 101.9 95.2 327.5
Hyden 09/05 09:00 10.1 96 9.08 9.5 4 1013.1 0 20.8 27.8 43.7 115.0 110.0 378.4
Iron Bridge Mine 09/05 10:30 23.4 23 4.84 1.1 20 35 1019.3 0 11.3 18.5 23.2 60.1 46.7 157.9
Jacup 09/05 10:30 16.1 53 7.26 6.5 22 32 1031.4 0 16.6 23.8 34.3 89.6 80.0 274.3
Jandakot 09/05 10:30 19.3 42 6.97 6.1 22 32 1027.8 0 15.9 22.5 31.8 83.0 73.3 250.9
Jarrahwood 09/05 09:00 14 62 7.48 6.8 11 1013.1 0 17.2 24.1 35.3 92.5 83.7 287.0
Jurien Bay 09/05 09:00 16.6 49 6.92 6 28 1025.6 0 15.9 23.0 32.6 85.1 75.0 256.8
Kalbarri 09/05 09:00 20.7 29 5.22 2 26 1022.9 0 12.2 19.6 25.3 65.6 52.4 177.8
Kalgoorlie-Boulder 09/05 10:30 15.9 54 7.31 6.6 19 26 1030.4 0 16.7 23.9 34.5 90.2 80.8 276.9
Kalumburu 09/05 12:10 30.2 39 11.96 14.7 9 15 1013.2 0 25.8 26.3 44.0 115.9 117.8 408.2
Karijini North 09/05 10:30 21.1 22 4.05 -1.4 30 43 1020.5 0 9.7 17.9 21.4 55.3 39.9 133.9
Karnet 09/05 09:00 11.9 64 6.78 5.3 1013.1 0 15.8 23.5 33.5 87.7 77.0 263.2
Karratha 09/05 10:30 26 24 5.84 3.9 41 48 1018.6 0 13.3 19.2 25.5 66.3 55.2 188.2
Katanning Rs 09/05 10:30 15.5 54 7.14 6.2 26 37 1030.6 0 16.4 23.8 34.1 89.0 79.1 270.9
Koolan Island / Koolan Central 09/05 10:30 25.7 46 11.01 13.2 19 28 1013.1 0 24.1 26.2 42.9 113.0 112.9 390.7
Kununurra Airport 09/05 12:10 27.1 33 8.54 9.5 20 22 1014.9 0 18.8 22.3 33.6 88.2 82.7 285.0
Lake Grace 09/05 10:30 17.1 51 7.42 6.9 22 35 1030.5 0 16.9 23.8 34.5 90.0 80.9 277.5
Lancelin (Defence) 09/05 10:30 20.2 36 6.29 4.7 22 33 1025.3 0 14.4 21.2 29.0 75.6 64.6 220.5
Laverton 09/05 10:30 16.4 51 7.12 6.2 24 32 1028.5 0 16.3 23.4 33.6 87.6 77.8 266.6
Learmonth 09/05 10:30 25.6 32 7.62 7.7 20 28 1020.1 0 17.0 21.6 31.4 82.0 74.4 255.6
Legendre Island 09/05 10:30 24.7 44 9.96 11.6 48 56 1018.1 0 21.9 25.1 39.8 104.6 102.0 352.4
Leinster 09/05 10:30 17 38 5.5 2.6 22 32 1026.3 0 12.9 20.9 27.5 71.4 58.1 197.5
Leonora Airport 09/05 10:30 16.8 43 6.15 4.2 22 32 1028.2 0 14.3 21.9 29.9 77.8 65.9 224.7
Lombadina 09/05 10:30 25.3 51 11.94 14.7 20 35 1014.2 0 26.0 27.8 46.7 123.1 125.1 433.4
Mandora 09/05 10:30 27.2 24 6.25 4.9 15 28 1017.3 0 14.1 19.4 26.3 68.6 58.5 199.9
Mandurah 09/05 10:30 18.8 48 7.73 7.6 19 26 1027.9 0 17.5 23.7 34.8 90.9 82.8 284.2
Manjimup 09/05 10:30 15.5 55 7.27 6.5 15 28 1028.9 0 16.7 23.9 34.5 90.1 80.6 276.2
Marble Bar 09/05 10:30 23.5 22 4.65 0.6 24 35 1019.7 0 10.9 18.2 22.6 58.5 44.7 151.1
Mardie 09/05 10:30 27.2 21 5.46 3 33 43 1018.6 0 12.5 18.5 24.0 62.3 50.6 172.3
Meekatharra 09/05 10:30 19.4 30 5 1.4 20 32 1024.7 0 11.8 19.6 25.0 64.8 50.9 172.5
Millendon (Swan Valley) 09/05 10:30 19.3 41 6.8 5.7 11 22 1027.7 0 15.5 22.2 31.2 81.4 71.3 243.9
Morawa Airport 09/05 10:30 20.1 32 5.56 2.9 26 37 1026.1 0 12.9 20.3 26.7 69.3 56.6 192.5
Mount Keith 09/05 10:30 16.1 38 5.21 1.8 22 32 1026.4 0 12.3 20.7 26.8 69.5 55.5 188.1
Mount Magnet Airport 09/05 10:30 18.4 30 4.72 0.5 26 35 1026 0 11.2 19.5 24.4 63.2 48.6 164.1
Mullewa 09/05 09:00 17.3 37 5.45 2.6 26 1013.1 0 12.8 20.3 26.7 69.6 56.7 192.6
Munglinup West 09/05 10:30 16.3 58 8.05 8 19 26 1032.4 0 18.3 25.0 37.3 97.4 89.8 308.4
Murchison 09/05 09:00 19 65 10.59 12.4 19 1024.5 0 23.5 28.0 45.5 119.7 118.5 409.3
Narrogin 09/05 09:00 13.5 61 7.14 6.3 4 1013.1 0 16.5 23.7 34.2 89.6 79.9 273.7
Newdegate 09/05 10:30 16.5 52 7.3 6.6 24 33 1030.5 0 16.7 23.8 34.3 89.4 80.1 274.4
Newman Airport 09/05 10:30 19.3 23 3.81 -2.3 24 35 1021.6 0 9.3 18.0 21.2 54.6 38.4 128.3
Norseman Airport 09/05 10:30 15.6 59 7.85 7.6 13 20 1032.1 0 17.9 24.9 36.8 96.2 88.0 302.1
North Island 09/05 10:30 23.6 41 8.72 9.6 35 46 1022.9 0 19.4 23.7 36.1 94.5 89.0 306.7
Northam 09/05 09:00 14.2 60 7.33 6.6 4 1013.1 0 16.9 23.8 34.6 90.7 81.6 279.7
Onslow Airport 09/05 10:30 26.6 30 7.55 7.6 30 37 1019.6 0 16.8 21.3 30.7 80.3 72.7 249.8
Paraburdoo 09/05 10:30 21.7 21 4.01 -1.6 24 33 1020.3 0 9.6 17.8 21.1 54.5 39.2 131.5
Pardoo 09/05 09:00 24 100 21.76 24 41 1019 0 46.9 46.3 92.4 244.5 273.6 950.3
Paynes Find 09/05 09:00 15.4 50 6.57 5.2 4 1027.7 0 15.2 22.8 31.9 83.2 72.0 246.1
Pearce 09/05 10:30 19.8 36 6.15 4.3 19 30 1027.4 0 14.2 21.2 28.8 74.9 63.4 216.4
Perth 09/05 10:30 18.5 42 6.64 5.4 20 35 1027.7 0 15.2 22.2 31.0 80.7 70.1 239.8
Perth Airport 09/05 10:30 19.4 37 6.17 4.3 32 33 1027.8 0 14.2 21.3 29.0 75.5 64.0 218.4
Pingelly 09/05 09:00 13 58 6.58 4.9 6 1013.1 0 15.3 22.9 32.3 84.4 73.4 250.9
Port Hedland 09/05 10:30 25.8 23 5.54 3.1 33 46 1018.4 0 12.7 18.8 24.6 64.0 52.3 177.9
Portable Btsa (Dfes) 09/05 10:20 24.7 23 5.21 2.1 19 24 1013.1 0 12.0 18.5 23.8 61.7 49.4 167.7
Portable Btsb (Dfes) 09/05 10:20 15.8 49 6.6 5.1 17 20 1013.1 0 15.3 22.3 31.3 81.7 71.1 243.2
Portable Btsd (Dfes) 09/05 10:20 16.1 50 6.85 5.8 20 26 1013.1 0 15.8 22.6 32.1 83.9 73.8 252.7
Portable Btsf (Dfes) 09/05 10:00 16.4 34 4.75 0.7 32 37 1013.1 0 11.3 19.5 24.7 64.1 49.5 167.3
Portable Btsh (Dfes) 09/05 10:20 16.8 66 9.44 10.5 7 9 1013.1 0 21.2 26.4 41.6 109.3 105.5 363.7
Portable Btsj (Dfes) 09/05 10:20 18.8 42 6.76 5.6 15 17 1013.1 0 15.5 21.8 30.7 80.3 70.4 240.8
Portable Btsk (Dfes) 09/05 10:20 26.9 19 4.86 1.9 17 24 1013.1 0 11.2 17.6 22.1 57.4 44.7 151.4
Portable Btsl (Dfes) 09/05 10:20 16 63 8.58 9 22 28 1013.1 0 19.4 25.2 38.6 101.4 95.4 328.3
Portable Btsm (Dfes) 09/05 10:20 19 25 4.07 -1.2 13 19 1013.1 0 9.8 18.1 21.8 56.3 40.9 137.1
Portable Btsn (Dfes) 09/05 10:20 16.8 36 5.15 1.6 15 19 1013.1 0 12.2 20.0 25.9 67.3 53.7 182.0
Portable Btso (Dfes) 09/05 10:20 16.9 46 6.62 5.4 9 15 1013.1 0 15.3 22.0 30.9 80.8 70.4 240.7
Red Rocks Point 09/05 10:30 15.8 95 12.79 15 15 22 1032.7 1 28.4 33.2 57.5 151.5 156.1 540.2
Rocky Gully South 09/05 10:30 15.2 57 7.4 6.7 19 32 1013.1 0 17.0 23.6 34.5 90.3 81.4 279.2
Roebourne Airport 09/05 10:30 26.4 23 5.73 3.6 35 46 1019.2 0 13.1 19.0 25.0 65.1 53.8 183.5
Rottnest Island 09/05 10:30 18.8 47 7.57 7.3 32 41 1026.9 0 17.2 23.4 34.1 89.2 80.8 277.2
Salmon Gums Rs 09/05 10:30 15.4 65 8.54 8.9 15 19 1013.1 0 19.4 25.3 38.8 101.7 95.6 328.9
Shannon 09/05 10:30 15.6 63 8.38 8.6 19 30 1013.1 0 19.0 25.0 38.0 99.8 93.3 320.9
Shark Bay Airport 09/05 10:30 23.8 28 6.02 4.2 28 41 1021.3 0 13.7 19.9 26.8 69.8 58.7 200.3
Solomon Airport 09/05 10:30 20.1 24 4.17 -1.1 24 33 1019.2 0 10.0 18.2 22.0 56.8 41.6 139.7
Southern Cross Airport 09/05 10:30 16.3 50 6.94 5.9 28 39 1029.8 0 15.9 23.2 33.0 86.0 75.8 259.5
Swanbourne 09/05 10:30 19.5 52 8.73 9.4 17 24 1013.1 0 19.6 24.5 37.5 98.5 93.1 320.6
Telfer 09/05 10:30 21.1 22 4.05 -1.4 28 35 1019.8 0 9.7 17.9 21.4 55.2 39.9 133.8
Thevenard Island 09/05 10:30 26.2 33 8.12 8.7 32 41 1019.5 0 18.0 22.1 32.8 85.8 79.3 272.8
Troughton Island 09/05 12:10 28.8 52 14.78 18 28 35 1013.5 0 31.7 31.1 55.6 146.7 155.3 539.2
Truscott 09/05 12:10 28.6 44 12.37 15.2 19 24 1012.9 0 26.7 27.4 46.4 122.2 125.1 433.7
Walpole North 09/05 10:30 16 61 8.31 8.5 15 22 1029.2 0 18.9 25.4 38.3 100.2 93.2 320.4
Wandering 09/05 10:30 15.7 51 6.82 5.6 19 26 1013.1 0 15.7 22.6 32.1 84.0 73.9 252.7
Warburton 09/05 12:10 16.9 31 4.46 -0.3 22 28 1026.2 0 10.7 19.5 24.0 62.1 46.6 157.1
West Angelas 09/05 10:30 18.5 27 4.27 -0.8 28 37 1019.6 0 10.3 18.7 22.7 58.8 43.5 146.1
West Musgrave Airport 09/05 10:30 16.4 31 4.33 -0.8 19 32 1013.1 0 10.5 19.0 23.3 60.4 45.0 151.2
Wiluna Airport 09/05 10:30 17.6 33 4.95 1.2 20 28 1025.5 0 11.7 20.0 25.4 65.8 51.6 174.4
Windy Harbour 09/05 09:00 14 61 7.36 6.7 19 1029 0 16.9 24.5 35.5 92.8 83.3 285.4
Witchcliffe West 09/05 10:30 16.8 68 9.72 10.9 24 35 1027.5 0 21.8 27.4 43.4 113.9 110.4 380.9
Wyndham Airport 09/05 12:10 29.5 31 9.15 10.6 30 39 1014.2 0 20.0 22.6 34.7 90.9 86.8 299.8
Yampi Sound (Defence) 09/05 10:30 28.1 36 9.84 12 11 17 1017.7 0 21.5 24.0 37.7 99.1 96.4 333.0
York 09/05 09:00 12.7 68 7.57 6.9 4 1029.7 0 17.4 25.2 36.9 96.6 87.5 299.9

Last Refresh: 09-May-2026 12:12:24

Bureau of Meteorology